createdAt,value
2019-03-11T00:00:56.515Z,7.9
2019-03-11T00:01:58.108Z,7.9
2019-03-11T00:02:59.497Z,7.9
2019-03-11T00:04:01.062Z,7.9
2019-03-11T00:05:02.619Z,7.9
2019-03-11T00:06:03.995Z,7.9
2019-03-11T00:07:05.413Z,7.9
2019-03-11T00:08:06.959Z,7.9
2019-03-11T00:09:08.197Z,7.9
2019-03-11T00:10:09.599Z,7.9
2019-03-11T00:11:11.154Z,7.9
2019-03-11T00:12:12.699Z,7.9
2019-03-11T00:13:13.941Z,7.9
2019-03-11T00:14:15.507Z,7.9
2019-03-11T00:15:17.064Z,7.9
2019-03-11T00:16:18.634Z,7.9
2019-03-11T00:17:20.033Z,7.9
2019-03-11T00:18:21.622Z,7.2
2019-03-11T00:19:23.012Z,7.3
2019-03-11T00:20:24.409Z,7.4
2019-03-11T00:21:25.836Z,7.5
2019-03-11T00:22:27.043Z,7.6
2019-03-11T00:23:28.441Z,7.7
2019-03-11T00:24:29.992Z,7.8
2019-03-11T00:25:31.398Z,7.8
2019-03-11T00:26:32.955Z,7.9
2019-03-11T00:27:34.497Z,7.9
2019-03-11T00:28:35.916Z,7.9
2019-03-11T00:29:37.318Z,7.9
2019-03-11T00:30:38.716Z,7.9
2019-03-11T00:31:40.121Z,7.9
2019-03-11T00:32:41.529Z,7.9
2019-03-11T00:33:42.775Z,7.8
2019-03-11T00:34:44.174Z,7.9
2019-03-11T00:35:45.444Z,7.9
2019-03-11T00:36:47.009Z,7.8
2019-03-11T00:37:48.424Z,7.8
2019-03-11T00:38:49.811Z,7.8
2019-03-11T00:39:51.354Z,7.8
2019-03-11T00:40:52.582Z,7.8
2019-03-11T00:41:54.016Z,7.8
2019-03-11T00:42:55.571Z,7.8
2019-03-11T00:43:57.153Z,7.8
2019-03-11T00:44:58.725Z,7.8
2019-03-11T00:46:00.159Z,7.7
2019-03-11T00:47:01.697Z,7.7
2019-03-11T00:48:04.030Z,7.7
2019-03-11T00:49:05.561Z,7.7
2019-03-11T00:50:06.971Z,7.6
2019-03-11T00:51:08.529Z,7.6
2019-03-11T00:52:09.938Z,7.6
2019-03-11T00:53:11.467Z,7.6
2019-03-11T00:54:12.851Z,7.6
2019-03-11T00:55:14.479Z,7.6
2019-03-11T00:56:15.879Z,7.6
2019-03-11T00:57:17.300Z,7.6
2019-03-11T00:58:21.526Z,7.6
2019-03-11T00:59:23.077Z,7.6
2019-03-11T01:00:24.618Z,7.5
2019-03-11T01:01:25.843Z,7.5
2019-03-11T01:02:27.227Z,7.5
2019-03-11T01:03:28.790Z,7.4
2019-03-11T01:04:30.359Z,7.4
2019-03-11T01:05:31.925Z,7.4
2019-03-11T01:06:33.471Z,7.4
2019-03-11T01:07:35.073Z,7.4
2019-03-11T01:08:36.609Z,7.4
2019-03-11T01:09:38.171Z,7.3
2019-03-11T01:10:39.786Z,7.3
2019-03-11T01:11:41.034Z,7.3
2019-03-11T01:12:42.498Z,7.3
2019-03-11T01:13:44.057Z,7.3
2019-03-11T01:14:45.442Z,7.3
2019-03-11T01:15:46.994Z,7.3
2019-03-11T01:16:48.397Z,7.3
2019-03-11T01:17:49.952Z,7.3
2019-03-11T01:18:51.733Z,7.3
2019-03-11T01:19:53.131Z,7.3
2019-03-11T01:20:54.504Z,7.3
2019-03-11T01:21:56.060Z,7.2
2019-03-11T01:22:57.284Z,7.2
2019-03-11T01:23:58.687Z,7.2
2019-03-11T01:25:00.162Z,7.2
2019-03-11T01:26:01.887Z,7.2
2019-03-11T01:27:03.456Z,7.2
2019-03-11T01:28:05.005Z,7.3
2019-03-11T01:29:06.399Z,7.3
2019-03-11T01:30:07.871Z,7.3
2019-03-11T01:31:09.281Z,7.3
2019-03-11T01:32:10.690Z,7.3
2019-03-11T01:33:12.253Z,7.3
2019-03-11T01:34:13.794Z,7.3
2019-03-11T01:35:15.203Z,7.3
2019-03-11T01:36:16.749Z,7.3
2019-03-11T01:37:18.278Z,7.3
2019-03-11T01:38:19.599Z,7.4
2019-03-11T01:39:20.990Z,7.3
2019-03-11T01:40:22.244Z,7.4
2019-03-11T01:41:23.814Z,7.4
2019-03-11T01:42:25.219Z,7.4
2019-03-11T01:43:26.757Z,7.4
2019-03-11T01:44:28.149Z,7.4
2019-03-11T01:45:29.732Z,7.4
2019-03-11T01:46:31.131Z,7.4
2019-03-11T01:47:32.659Z,7.4
2019-03-11T01:48:34.062Z,7.4
2019-03-11T01:49:35.486Z,7.4
2019-03-11T01:50:36.892Z,7.4
2019-03-11T01:51:38.281Z,7.4
2019-03-11T01:52:39.819Z,7.5
2019-03-11T01:53:41.376Z,7.5
2019-03-11T01:54:42.764Z,7.5
2019-03-11T01:55:44.330Z,7.5
2019-03-11T01:56:45.889Z,7.6
2019-03-11T01:57:47.450Z,7.6
2019-03-11T01:58:48.927Z,7.6
2019-03-11T01:59:50.488Z,7.6
2019-03-11T02:00:52.016Z,7.6
2019-03-11T02:01:53.591Z,7.7
2019-03-11T02:02:54.979Z,7.7
2019-03-11T02:03:56.365Z,7.7
2019-03-11T02:04:57.912Z,7.7
2019-03-11T02:05:59.456Z,7.6
2019-03-11T02:07:00.854Z,7.6
2019-03-11T02:08:02.091Z,7.5
2019-03-11T02:09:03.340Z,7.3
2019-03-11T02:10:04.569Z,7.2
2019-03-11T02:11:05.962Z,7.1
2019-03-11T02:12:07.361Z,7.1
2019-03-11T02:13:08.925Z,7.2
2019-03-11T02:14:10.301Z,7.1
2019-03-11T02:15:11.698Z,7.2
2019-03-11T02:16:12.948Z,7.2
2019-03-11T02:17:14.479Z,7.1
2019-03-11T02:18:16.038Z,7.2
2019-03-11T02:19:17.579Z,7.2
2019-03-11T02:20:18.840Z,7.1
2019-03-11T02:21:20.589Z,7.1
2019-03-11T02:22:22.129Z,7.1
2019-03-11T02:23:23.206Z,7.1
2019-03-11T02:24:24.793Z,7.1
2019-03-11T02:25:26.198Z,7.1
2019-03-11T02:26:27.736Z,7.1
2019-03-11T02:27:29.119Z,7.1
2019-03-11T02:28:30.548Z,7.1
2019-03-11T02:29:31.772Z,7.1
2019-03-11T02:30:33.329Z,7.1
2019-03-11T02:31:34.429Z,7.1
2019-03-11T02:32:36.029Z,7.1
2019-03-11T02:33:37.628Z,7.1
2019-03-11T02:34:39.207Z,7.1
2019-03-11T02:35:40.784Z,7.1
2019-03-11T02:36:42.192Z,7.1
2019-03-11T02:37:43.758Z,7.1
2019-03-11T02:38:45.340Z,7.1
2019-03-11T02:39:46.760Z,7.1
2019-03-11T02:40:48.323Z,7.1
2019-03-11T02:41:49.942Z,7.1
2019-03-11T02:42:51.348Z,7.1
2019-03-11T02:43:52.967Z,7.1
2019-03-11T02:44:54.349Z,7.1
2019-03-11T02:45:55.414Z,7.1
2019-03-11T02:46:56.971Z,7.1
2019-03-11T02:47:58.600Z,7.1
2019-03-11T02:49:00.175Z,7.1
2019-03-11T02:50:01.848Z,7.1
2019-03-11T02:51:03.470Z,7.1
2019-03-11T02:52:04.889Z,7.2
2019-03-11T02:53:06.442Z,7.2
2019-03-11T02:54:08.060Z,7.2
2019-03-11T02:55:09.911Z,7.2
2019-03-11T02:56:11.176Z,7.2
2019-03-11T02:57:12.567Z,7.2
2019-03-11T02:58:13.973Z,7.2
2019-03-11T02:59:15.532Z,7.3
2019-03-11T03:00:17.139Z,7.3
2019-03-11T03:01:18.706Z,7.4
2019-03-11T03:02:20.290Z,7.4
2019-03-11T03:03:21.469Z,7.5
2019-03-11T03:04:23.059Z,7.5
2019-03-11T03:05:24.680Z,7.6
2019-03-11T03:06:26.266Z,7.7
2019-03-11T03:07:27.841Z,7.8
2019-03-11T03:08:29.388Z,7.9
2019-03-11T03:09:33.450Z,7.9
2019-03-11T03:10:34.818Z,7.9
2019-03-11T03:11:36.262Z,7.9
2019-03-11T03:12:37.845Z,7.9
2019-03-11T03:13:39.380Z,7.9
2019-03-11T03:14:40.645Z,7.5
2019-03-11T03:15:42.316Z,7.6
2019-03-11T03:16:43.875Z,7.7
2019-03-11T03:17:45.479Z,7.8
2019-03-11T03:18:47.093Z,7.8
2019-03-11T03:19:48.678Z,7.9
2019-03-11T03:20:50.281Z,7.9
2019-03-11T03:21:51.777Z,7.9
2019-03-11T03:22:53.252Z,7.9
2019-03-11T03:23:54.879Z,7.9
2019-03-11T03:24:56.462Z,7.9
2019-03-11T03:25:58.043Z,7.9
2019-03-11T03:26:59.331Z,7.9
2019-03-11T03:28:01.955Z,7.9
2019-03-11T03:29:03.729Z,7.9
2019-03-11T03:30:05.379Z,7.1
2019-03-11T03:31:06.888Z,7.3
2019-03-11T03:32:08.543Z,7.4
2019-03-11T03:33:10.167Z,7.4
2019-03-11T03:34:11.894Z,7.5
2019-03-11T03:35:13.545Z,7.6
2019-03-11T03:36:14.662Z,7.7
2019-03-11T03:37:15.913Z,7.7
2019-03-11T03:38:32.980Z,7.8
2019-03-11T03:39:34.543Z,7.8
2019-03-11T03:40:36.194Z,7.8
2019-03-11T03:41:37.781Z,7.8
2019-03-11T03:42:39.695Z,7.8
2019-03-11T03:43:41.323Z,7.8
2019-03-11T03:44:42.882Z,7.8
2019-03-11T03:45:44.498Z,7.8
2019-03-11T03:46:46.054Z,7.8
2019-03-11T03:47:47.446Z,7.2
2019-03-11T03:48:50.560Z,7.2
2019-03-11T03:49:52.270Z,7.3
2019-03-11T03:50:53.928Z,7.3
2019-03-11T03:51:55.367Z,7.3
2019-03-11T03:52:57.000Z,7.3
2019-03-11T03:53:58.438Z,7.3
2019-03-11T03:54:59.996Z,7.3
2019-03-11T03:56:01.398Z,7.4
2019-03-11T03:57:03.019Z,7.4
2019-03-11T03:58:04.630Z,7.4
2019-03-11T03:59:06.183Z,7.4
2019-03-11T04:00:07.637Z,7.5
2019-03-11T04:01:09.301Z,7.5
2019-03-11T04:02:25.569Z,7.4
2019-03-11T04:03:27.148Z,7.2
2019-03-11T04:04:28.587Z,7.2
2019-03-11T04:05:30.023Z,7.1
2019-03-11T04:06:31.663Z,7.1
2019-03-11T04:07:33.225Z,7.1
2019-03-11T04:08:34.315Z,7.1
2019-03-11T04:09:35.878Z,7.1
2019-03-11T04:10:37.308Z,7.1
2019-03-11T04:11:38.934Z,7.1
2019-03-11T04:12:40.207Z,7.1
2019-03-11T04:13:41.787Z,7.1
2019-03-11T04:14:42.900Z,7.1
2019-03-11T04:15:44.395Z,7.1
2019-03-11T04:16:45.803Z,7.1
2019-03-11T04:17:47.537Z,7.1
2019-03-11T04:18:49.115Z,7.1
2019-03-11T04:19:50.789Z,7.1
2019-03-11T04:20:52.389Z,7.1
2019-03-11T04:21:54.010Z,7.1
2019-03-11T04:22:55.535Z,7.1
2019-03-11T04:23:57.102Z,7.2
2019-03-11T04:24:58.536Z,7.1
2019-03-11T04:26:00.122Z,7.2
2019-03-11T04:27:01.669Z,7.1
2019-03-11T04:28:03.114Z,7.2
2019-03-11T04:29:04.691Z,7.2
2019-03-11T04:30:05.936Z,7.2
2019-03-11T04:31:07.408Z,7.2
2019-03-11T04:32:08.979Z,7.2
2019-03-11T04:33:10.373Z,7.2
2019-03-11T04:34:11.772Z,7.2
2019-03-11T04:35:13.192Z,7.2
2019-03-11T04:36:14.598Z,7.3
2019-03-11T04:37:16.169Z,7.3
2019-03-11T04:38:17.742Z,7.3
2019-03-11T04:39:19.119Z,7.4
2019-03-11T04:40:20.547Z,7.5
2019-03-11T04:41:21.930Z,7.6
2019-03-11T04:42:23.327Z,7.7
2019-03-11T04:43:24.892Z,7.8
2019-03-11T04:44:26.452Z,7.9
2019-03-11T04:45:27.998Z,7.6
2019-03-11T04:46:29.248Z,7.8
2019-03-11T04:47:30.490Z,7.9
2019-03-11T04:48:31.881Z,7.8
2019-03-11T04:49:33.450Z,7.9
2019-03-11T04:50:35.026Z,7.4
2019-03-11T04:51:36.172Z,7.6
2019-03-11T04:52:37.560Z,7.8
2019-03-11T04:53:39.136Z,7.9
2019-03-11T04:54:40.548Z,7.9
2019-03-11T04:55:42.085Z,7.9
2019-03-11T04:56:43.636Z,7.4
2019-03-11T04:57:45.016Z,7.6
2019-03-11T04:58:46.582Z,7.7
2019-03-11T04:59:48.150Z,7.8
2019-03-11T05:00:49.701Z,7.8
2019-03-11T05:01:50.930Z,7.9
2019-03-11T05:02:52.333Z,7.9
2019-03-11T05:03:53.893Z,7.9
2019-03-11T05:04:55.461Z,7.9
2019-03-11T05:05:57.008Z,7.9
2019-03-11T05:06:58.554Z,7.9
2019-03-11T05:08:00.130Z,7.9
2019-03-11T05:09:01.696Z,7.9
2019-03-11T05:10:03.250Z,7.8
2019-03-11T05:11:04.822Z,7.9
2019-03-11T05:12:06.053Z,7.9
2019-03-11T05:13:07.288Z,7.9
2019-03-11T05:14:08.832Z,7.9
2019-03-11T05:15:10.390Z,7.9
2019-03-11T05:16:11.954Z,7.9
2019-03-11T05:17:13.504Z,7.9
2019-03-11T05:18:15.068Z,7.9
2019-03-11T05:19:16.615Z,7.9
2019-03-11T05:20:18.027Z,7.9
2019-03-11T05:21:19.261Z,7.9
2019-03-11T05:22:20.656Z,7.9
2019-03-11T05:23:22.224Z,7.9
2019-03-11T05:24:23.612Z,7.9
2019-03-11T05:25:25.134Z,7.9
2019-03-11T05:26:26.518Z,7.9
2019-03-11T05:27:28.063Z,7.9
2019-03-11T05:28:29.618Z,7.8
2019-03-11T05:29:31.194Z,7.8
2019-03-11T05:30:32.578Z,7.8
2019-03-11T05:31:34.154Z,7.9
2019-03-11T05:32:35.548Z,7.9
2019-03-11T05:33:37.111Z,7.2
2019-03-11T05:34:38.674Z,7.3
2019-03-11T05:35:40.096Z,7.3
2019-03-11T05:36:41.753Z,7.4
2019-03-11T05:37:43.393Z,7.4
2019-03-11T05:38:44.955Z,7.5
2019-03-11T05:39:46.180Z,7.5
2019-03-11T05:40:47.733Z,7.5
2019-03-11T05:41:49.281Z,7.6
2019-03-11T05:42:50.706Z,7.6
2019-03-11T05:43:52.131Z,7.5
2019-03-11T05:44:53.426Z,7.6
2019-03-11T05:45:54.971Z,7.6
2019-03-11T05:46:56.362Z,7.6
2019-03-11T05:47:57.820Z,7.6
2019-03-11T05:49:00.577Z,7.6
2019-03-11T05:50:02.145Z,7.5
2019-03-11T05:51:03.562Z,7.4
2019-03-11T05:52:04.832Z,7.3
2019-03-11T05:53:06.300Z,7.1
2019-03-11T05:54:07.919Z,7.1
2019-03-11T05:55:09.529Z,7.1
2019-03-11T05:56:10.772Z,7.1
2019-03-11T05:57:12.409Z,7.1
2019-03-11T05:58:13.976Z,7.1
2019-03-11T05:59:15.561Z,7.1
2019-03-11T06:00:16.815Z,7.1
2019-03-11T06:01:18.391Z,7.1
2019-03-11T06:02:19.801Z,7.1
2019-03-11T06:03:21.383Z,7.1
2019-03-11T06:04:22.954Z,7.2
2019-03-11T06:05:24.504Z,7.1
2019-03-11T06:06:25.944Z,7.2
2019-03-11T06:07:27.493Z,7.1
2019-03-11T06:08:29.024Z,7.2
2019-03-11T06:09:30.581Z,7.2
2019-03-11T06:10:31.837Z,7.2
2019-03-11T06:11:33.072Z,7.2
2019-03-11T06:12:34.586Z,7.2
2019-03-11T06:13:37.855Z,7.2
2019-03-11T06:14:39.312Z,7.2
2019-03-11T06:15:40.880Z,7.2
2019-03-11T06:16:42.448Z,7.3
2019-03-11T06:17:44.782Z,7.3
2019-03-11T06:18:46.413Z,7.4
2019-03-11T06:19:47.646Z,7.5
2019-03-11T06:20:49.237Z,7.6
2019-03-11T06:21:50.789Z,7.7
2019-03-11T06:22:52.067Z,7.8
2019-03-11T06:23:53.620Z,7.9
2019-03-11T06:24:55.031Z,7.2
2019-03-11T06:25:56.593Z,7.3
2019-03-11T06:26:58.173Z,7.4
2019-03-11T06:27:59.717Z,7.5
2019-03-11T06:29:00.977Z,7.6
2019-03-11T06:30:02.529Z,7.7
2019-03-11T06:31:04.089Z,7.8
2019-03-11T06:32:05.633Z,7.8
2019-03-11T06:33:07.167Z,7.9
2019-03-11T06:34:08.557Z,7.9
2019-03-11T06:35:10.108Z,7.9
2019-03-11T06:36:11.369Z,7.7
2019-03-11T06:37:12.789Z,7.8
2019-03-11T06:38:14.185Z,7.8
2019-03-11T06:39:15.594Z,7.9
2019-03-11T06:40:17.021Z,7.9
2019-03-11T06:41:18.258Z,7.9
2019-03-11T06:42:19.822Z,7.9
2019-03-11T06:43:21.633Z,7.2
2019-03-11T06:44:23.203Z,7.4
2019-03-11T06:45:24.582Z,7.5
2019-03-11T06:46:26.135Z,7.6
2019-03-11T06:47:27.377Z,7.7
2019-03-11T06:48:29.077Z,7.8
2019-03-11T06:49:30.624Z,7.9
2019-03-11T06:50:32.185Z,7.9
2019-03-11T06:51:33.732Z,7.9
2019-03-11T06:52:35.137Z,7.9
2019-03-11T06:53:36.519Z,7.9
2019-03-11T06:54:37.921Z,7.9
2019-03-11T06:55:39.285Z,7.9
2019-03-11T06:56:40.675Z,7.9
2019-03-11T06:57:42.095Z,7.9
2019-03-11T06:58:43.700Z,7.9
2019-03-11T06:59:45.259Z,7.9
2019-03-11T07:00:46.501Z,7.9
2019-03-11T07:01:48.061Z,7.9
2019-03-11T07:02:49.471Z,7.9
2019-03-11T07:03:50.857Z,7.9
2019-03-11T07:04:52.420Z,7.9
2019-03-11T07:05:53.828Z,7.9
2019-03-11T07:06:55.379Z,7.9
2019-03-11T07:07:56.634Z,7.9
2019-03-11T07:08:58.027Z,7.9
2019-03-11T07:09:59.507Z,7.9
2019-03-11T07:11:01.058Z,7.3
2019-03-11T07:12:02.613Z,7.5
2019-03-11T07:13:04.157Z,7.7
2019-03-11T07:14:05.279Z,7.9
2019-03-11T07:15:06.839Z,7.9
2019-03-11T07:16:10.821Z,7.9
2019-03-11T07:17:12.456Z,7.9
2019-03-11T07:18:13.858Z,7.9
2019-03-11T07:19:15.424Z,7.9
2019-03-11T07:20:17.039Z,7.9
2019-03-11T07:21:18.433Z,7.9
2019-03-11T07:22:19.980Z,7.9
2019-03-11T07:23:21.237Z,7.8
2019-03-11T07:24:22.793Z,7.8
2019-03-11T07:25:24.189Z,7.7
2019-03-11T07:26:25.421Z,7.6
2019-03-11T07:27:29.220Z,7.5
2019-03-11T07:28:30.635Z,7.4
2019-03-11T07:29:32.231Z,7.3
2019-03-11T07:30:33.789Z,7.2
2019-03-11T07:31:35.365Z,7.1
2019-03-11T07:32:36.603Z,7.1
2019-03-11T07:33:38.015Z,7.1
2019-03-11T07:34:39.558Z,7.1
2019-03-11T07:35:41.105Z,7.1
2019-03-11T07:36:42.517Z,7.1
2019-03-11T07:37:43.915Z,7.1
2019-03-11T07:38:45.526Z,7.2
2019-03-11T07:39:46.767Z,7.2
2019-03-11T07:41:02.863Z,7.2
2019-03-11T07:42:04.435Z,7.2
2019-03-11T07:43:05.549Z,7.2
2019-03-11T07:44:07.160Z,7.2
2019-03-11T07:45:08.719Z,7.3
2019-03-11T07:46:10.359Z,7.4
2019-03-11T07:47:11.741Z,7.5
2019-03-11T07:48:13.206Z,7.7
2019-03-11T07:49:14.445Z,7.8
2019-03-11T07:50:15.525Z,7.9
2019-03-11T07:51:16.917Z,7.7
2019-03-11T07:52:18.497Z,7.8
2019-03-11T07:53:19.730Z,7.9
2019-03-11T07:54:21.282Z,7.9
2019-03-11T07:55:22.849Z,7.9
2019-03-11T07:56:24.404Z,7.9
2019-03-11T07:57:26.003Z,7.9
2019-03-11T07:58:27.391Z,7.9
2019-03-11T07:59:28.949Z,7.7
2019-03-11T08:00:30.341Z,7.8
2019-03-11T08:01:31.963Z,7.8
2019-03-11T08:02:33.198Z,7.9
2019-03-11T08:03:34.416Z,7.9
2019-03-11T08:04:35.867Z,7.9
2019-03-11T08:05:37.119Z,7.9
2019-03-11T08:06:38.680Z,7.9
2019-03-11T08:07:40.239Z,7.9
2019-03-11T08:08:41.792Z,7.9
2019-03-11T08:09:43.376Z,7.9
2019-03-11T08:10:44.997Z,7.9
2019-03-11T08:11:46.549Z,7.9
2019-03-11T08:12:48.114Z,7.9
2019-03-11T08:13:49.668Z,7.9
2019-03-11T08:14:51.102Z,7.8
2019-03-11T08:15:52.489Z,7.8
2019-03-11T08:16:54.041Z,7.8
2019-03-11T08:17:55.646Z,7.8
2019-03-11T08:18:57.180Z,7.8
2019-03-11T08:19:58.569Z,7.8
2019-03-11T08:20:59.997Z,7.8
2019-03-11T08:22:01.539Z,7.8
2019-03-11T08:23:02.955Z,7.8
2019-03-11T08:24:04.549Z,7.8
2019-03-11T08:25:05.796Z,7.8
2019-03-11T08:26:07.190Z,7.9
2019-03-11T08:27:08.738Z,7.8
2019-03-11T08:28:10.111Z,7.9
2019-03-11T08:29:11.700Z,7.9
2019-03-11T08:30:13.099Z,7.8
2019-03-11T08:31:14.678Z,7.8
2019-03-11T08:32:16.076Z,7.8
2019-03-11T08:33:17.641Z,7.8
2019-03-11T08:34:19.019Z,7.8
2019-03-11T08:35:20.283Z,7.8
2019-03-11T08:36:21.898Z,7.8
2019-03-11T08:37:23.462Z,7.8
2019-03-11T08:38:24.543Z,7.8
2019-03-11T08:39:26.140Z,7.8
2019-03-11T08:40:27.894Z,7.8
2019-03-11T08:41:29.443Z,7.8
2019-03-11T08:42:30.991Z,7.8
2019-03-11T08:43:32.547Z,7.8
2019-03-11T08:44:33.617Z,7.8
2019-03-11T08:45:35.011Z,7.9
2019-03-11T08:46:36.575Z,7.9
2019-03-11T08:47:38.146Z,7.9
2019-03-11T08:48:39.691Z,7.9
2019-03-11T08:49:41.127Z,7.9
2019-03-11T08:50:42.500Z,7.9
2019-03-11T08:51:44.043Z,7.8
2019-03-11T08:52:45.315Z,7.8
2019-03-11T08:53:46.576Z,7.7
2019-03-11T08:54:48.123Z,7.6
2019-03-11T08:55:49.369Z,7.4
2019-03-11T08:56:50.783Z,7.2
2019-03-11T08:57:52.337Z,7.1
2019-03-11T08:58:53.743Z,7.1
2019-03-11T08:59:55.227Z,7.1
2019-03-11T09:00:56.639Z,7.1
2019-03-11T09:01:58.205Z,7.1
2019-03-11T09:02:59.764Z,7.1
2019-03-11T09:04:01.335Z,7.1
2019-03-11T09:05:02.780Z,7.1
2019-03-11T09:06:04.407Z,7.1
2019-03-11T09:07:05.962Z,7.1
2019-03-11T09:08:07.529Z,7.1
2019-03-11T09:09:08.925Z,7.1
2019-03-11T09:10:10.319Z,7.1
2019-03-11T09:11:11.885Z,7.1
2019-03-11T09:12:13.421Z,7.1
2019-03-11T09:13:14.818Z,7.1
2019-03-11T09:14:16.208Z,7.1
2019-03-11T09:15:17.762Z,7.1
2019-03-11T09:16:19.322Z,7.1
2019-03-11T09:17:20.731Z,7.2
2019-03-11T09:18:22.391Z,7.2
2019-03-11T09:19:23.880Z,7.2
2019-03-11T09:20:25.132Z,7.2
2019-03-11T09:21:26.688Z,7.2
2019-03-11T09:22:28.071Z,7.2
2019-03-11T09:23:29.711Z,7.2
2019-03-11T09:24:31.320Z,7.3
2019-03-11T09:25:32.851Z,7.3
2019-03-11T09:26:34.253Z,7.4
2019-03-11T09:27:36.539Z,7.4
2019-03-11T09:28:38.108Z,7.4
2019-03-11T09:29:39.645Z,7.4
2019-03-11T09:30:41.204Z,7.5
2019-03-11T09:31:42.763Z,7.5
2019-03-11T09:32:44.387Z,7.6
2019-03-11T09:33:45.940Z,7.6
2019-03-11T09:34:47.184Z,7.7
2019-03-11T09:35:48.589Z,7.8
2019-03-11T09:36:49.999Z,7.9
2019-03-11T09:37:51.562Z,7.9
2019-03-11T09:38:53.138Z,7.9
2019-03-11T09:39:54.534Z,7.9
2019-03-11T09:40:55.922Z,7.9
2019-03-11T09:41:57.462Z,7.9
2019-03-11T09:42:59.049Z,7.9
2019-03-11T09:44:00.582Z,7.9
2019-03-11T09:45:01.851Z,7.9
2019-03-11T09:46:03.420Z,7.9
2019-03-11T09:47:04.630Z,7.7
2019-03-11T09:48:05.962Z,7.8
2019-03-11T09:49:07.356Z,7.9
2019-03-11T09:50:08.616Z,7.9
2019-03-11T09:51:10.163Z,7.9
2019-03-11T09:52:11.576Z,7.9
2019-03-11T09:53:13.155Z,7.9
2019-03-11T09:54:14.707Z,7.9
2019-03-11T09:55:16.275Z,7.9
2019-03-11T09:56:17.828Z,7.9
2019-03-11T09:57:19.363Z,7.2
2019-03-11T09:58:20.762Z,7.3
2019-03-11T09:59:22.325Z,7.3
2019-03-11T10:00:23.744Z,7.4
2019-03-11T10:01:25.305Z,7.4
2019-03-11T10:02:26.712Z,7.4
2019-03-11T10:03:28.268Z,7.5
2019-03-11T10:04:29.668Z,7.5
2019-03-11T10:05:31.078Z,7.5
2019-03-11T10:06:32.324Z,7.5
2019-03-11T10:07:33.712Z,7.6
2019-03-11T10:08:35.304Z,7.6
2019-03-11T10:09:36.743Z,7.6
2019-03-11T10:10:38.128Z,7.7
2019-03-11T10:11:39.382Z,7.8
2019-03-11T10:12:40.815Z,7.8
2019-03-11T10:13:42.194Z,7.9
2019-03-11T10:14:43.594Z,7.9
2019-03-11T10:15:45.017Z,7.9
2019-03-11T10:16:46.459Z,7.9
2019-03-11T10:17:48.019Z,7.9
2019-03-11T10:18:51.821Z,7.9
2019-03-11T10:19:53.967Z,7.9
2019-03-11T10:20:55.521Z,7.9
2019-03-11T10:21:57.083Z,7.9
2019-03-11T10:22:58.677Z,7.9
2019-03-11T10:24:00.822Z,7.9
2019-03-11T10:25:02.416Z,7.9
2019-03-11T10:26:03.818Z,7.9
2019-03-11T10:27:05.383Z,7.9
2019-03-11T10:28:06.961Z,7.9
2019-03-11T10:29:08.494Z,7.1
2019-03-11T10:30:09.414Z,7.3
2019-03-11T10:31:10.802Z,7.4
2019-03-11T10:32:12.359Z,7.5
2019-03-11T10:33:13.773Z,7.5
2019-03-11T10:34:15.162Z,7.5
2019-03-11T10:35:34.273Z,7.4
2019-03-11T10:36:35.837Z,7.3
2019-03-11T10:37:37.224Z,7.2
2019-03-11T10:38:38.789Z,7.2
2019-03-11T10:39:40.021Z,7.1
2019-03-11T10:40:41.420Z,7.1
2019-03-11T10:41:42.821Z,7.1
2019-03-11T10:42:44.068Z,7.1
2019-03-11T10:43:45.631Z,7.1
2019-03-11T10:44:46.713Z,7.1
2019-03-11T10:45:48.112Z,7.1
2019-03-11T10:46:49.665Z,7.1
2019-03-11T10:47:51.215Z,7.1
2019-03-11T10:48:52.774Z,7.1
2019-03-11T10:49:54.185Z,7.1
2019-03-11T10:50:56.351Z,7.1
2019-03-11T10:51:57.780Z,7.1
2019-03-11T10:52:59.179Z,7.1
2019-03-11T10:54:00.733Z,7.1
2019-03-11T10:55:02.316Z,7.1
2019-03-11T10:56:03.708Z,7.2
2019-03-11T10:57:05.092Z,7.2
2019-03-11T10:58:06.501Z,7.2
2019-03-11T10:59:07.798Z,7.2
2019-03-11T11:00:09.328Z,7.2
2019-03-11T11:01:11.438Z,7.2
2019-03-11T11:02:12.652Z,7.2
2019-03-11T11:03:14.195Z,7.2
2019-03-11T11:04:15.739Z,7.2
2019-03-11T11:05:17.290Z,7.3
2019-03-11T11:06:19.012Z,7.3
2019-03-11T11:07:20.266Z,7.4
2019-03-11T11:08:21.497Z,7.6
2019-03-11T11:09:22.890Z,7.7
2019-03-11T11:10:24.289Z,7.8
2019-03-11T11:11:25.562Z,7.9
2019-03-11T11:12:26.960Z,7.9
2019-03-11T11:13:28.508Z,7.4
2019-03-11T11:14:29.629Z,7.5
2019-03-11T11:15:31.064Z,7.6
2019-03-11T11:16:32.446Z,7.7
2019-03-11T11:17:33.854Z,7.8
2019-03-11T11:18:35.400Z,7.8
2019-03-11T11:19:36.965Z,7.9
2019-03-11T11:20:38.528Z,7.9
2019-03-11T11:21:40.080Z,7.9
2019-03-11T11:22:41.622Z,7.9
2019-03-11T11:23:43.188Z,7.9
2019-03-11T11:24:44.596Z,7.9
2019-03-11T11:25:45.983Z,7.9
2019-03-11T11:26:47.377Z,7.9
2019-03-11T11:27:48.485Z,7.9
2019-03-11T11:28:50.053Z,7.9
2019-03-11T11:29:51.668Z,7.9
2019-03-11T11:30:53.252Z,7.9
2019-03-11T11:31:54.504Z,7.9
2019-03-11T11:32:56.073Z,7.9
2019-03-11T11:33:58.657Z,7.9
2019-03-11T11:35:00.355Z,7.9
2019-03-11T11:36:01.788Z,7.9
2019-03-11T11:37:03.340Z,7.8
2019-03-11T11:38:04.892Z,7.8
2019-03-11T11:39:06.323Z,7.8
2019-03-11T11:40:07.886Z,7.7
2019-03-11T11:41:09.445Z,7.7
2019-03-11T11:42:11.061Z,7.7
2019-03-11T11:43:12.650Z,7.7
2019-03-11T11:44:14.049Z,7.7
2019-03-11T11:45:15.627Z,7.7
2019-03-11T11:46:17.012Z,7.7
2019-03-11T11:47:18.429Z,7.7
2019-03-11T11:48:19.976Z,7.8
2019-03-11T11:49:21.533Z,7.8
2019-03-11T11:50:23.089Z,7.8
2019-03-11T11:51:24.329Z,7.7
2019-03-11T11:52:25.730Z,7.7
2019-03-11T11:53:27.049Z,7.7
2019-03-11T11:54:28.460Z,7.7
2019-03-11T11:55:29.680Z,7.7
2019-03-11T11:56:31.237Z,7.7
2019-03-11T11:57:32.482Z,7.6
2019-03-11T11:58:34.068Z,7.6
2019-03-11T11:59:35.687Z,7.6
2019-03-11T12:00:37.259Z,7.6
2019-03-11T12:01:38.858Z,7.7
2019-03-11T12:02:40.401Z,7.8
2019-03-11T12:03:41.955Z,7.8
2019-03-11T12:04:43.369Z,7.9
2019-03-11T12:05:44.929Z,7.9
2019-03-11T12:06:46.330Z,7.9
2019-03-11T12:07:47.876Z,7.9
2019-03-11T12:08:49.322Z,7.2
2019-03-11T12:09:50.711Z,7.3
2019-03-11T12:10:52.271Z,7.4
2019-03-11T12:11:53.702Z,7.4
2019-03-11T12:12:55.291Z,7.4
2019-03-11T12:13:56.722Z,7.4
2019-03-11T12:14:58.274Z,7.4
2019-03-11T12:15:59.664Z,7.3
2019-03-11T12:17:00.872Z,7.2
2019-03-11T12:18:02.265Z,7.1
2019-03-11T12:19:03.810Z,7.2
2019-03-11T12:20:05.357Z,7.1
2019-03-11T12:21:06.771Z,7.1
2019-03-11T12:22:08.347Z,7.1
2019-03-11T12:23:09.752Z,7.1
2019-03-11T12:24:10.844Z,7.1
2019-03-11T12:25:12.432Z,7.1
2019-03-11T12:26:13.991Z,7.1
2019-03-11T12:27:15.387Z,7.1
2019-03-11T12:28:16.950Z,7.1
2019-03-11T12:29:18.355Z,7.1
2019-03-11T12:30:19.894Z,7.1
2019-03-11T12:31:23.292Z,7.1
2019-03-11T12:32:24.740Z,7.1
2019-03-11T12:33:26.319Z,7.1
2019-03-11T12:34:27.881Z,7.1
2019-03-11T12:35:29.481Z,7.2
2019-03-11T12:36:30.722Z,7.2
2019-03-11T12:37:32.115Z,7.2
2019-03-11T12:38:33.360Z,7.2
2019-03-11T12:39:34.755Z,7.2
2019-03-11T12:40:36.278Z,7.2
2019-03-11T12:41:37.684Z,7.2
2019-03-11T12:42:39.145Z,7.2
2019-03-11T12:43:40.551Z,7.3
2019-03-11T12:44:41.974Z,7.4
2019-03-11T12:45:43.383Z,7.5
2019-03-11T12:46:44.800Z,7.7
2019-03-11T12:47:46.399Z,7.8
2019-03-11T12:48:47.658Z,7.9
2019-03-11T12:49:49.058Z,7.9
2019-03-11T12:50:50.602Z,7.4
2019-03-11T12:51:52.162Z,7.5
2019-03-11T12:52:53.772Z,7.7
2019-03-11T12:53:55.329Z,7.8
2019-03-11T12:54:56.620Z,7.9
2019-03-11T12:55:58.206Z,7.9
2019-03-11T12:56:59.624Z,7.1
2019-03-11T12:58:01.197Z,7.3
2019-03-11T12:59:02.585Z,7.5
2019-03-11T13:00:03.985Z,7.7
2019-03-11T13:01:05.392Z,7.9
2019-03-11T13:02:06.953Z,7.9
2019-03-11T13:03:08.505Z,7.8
2019-03-11T13:04:09.900Z,7.9
2019-03-11T13:05:11.432Z,7.2
2019-03-11T13:06:13.047Z,7.4
2019-03-11T13:07:14.622Z,7.6
2019-03-11T13:08:16.174Z,7.7
2019-03-11T13:09:17.746Z,7.8
2019-03-11T13:10:19.303Z,7.9
2019-03-11T13:11:20.859Z,7.9
2019-03-11T13:12:22.410Z,7.8
2019-03-11T13:13:23.996Z,7.9
2019-03-11T13:14:25.504Z,7.8
2019-03-11T13:15:27.081Z,7.8
2019-03-11T13:16:28.639Z,7.9
2019-03-11T13:17:29.874Z,7.9
2019-03-11T13:18:34.282Z,7.9
2019-03-11T13:19:35.512Z,7.9
2019-03-11T13:20:37.100Z,7.8
2019-03-11T13:21:38.658Z,7.8
2019-03-11T13:22:40.239Z,7.8
2019-03-11T13:23:43.148Z,7.8
2019-03-11T13:24:44.450Z,7.8
2019-03-11T13:25:46.039Z,7.7
2019-03-11T13:26:47.416Z,7.7
2019-03-11T13:27:48.829Z,7.7
2019-03-11T13:28:50.370Z,7.7
2019-03-11T13:29:51.943Z,7.7
2019-03-11T13:30:53.505Z,7.7
2019-03-11T13:31:55.100Z,7.6
2019-03-11T13:32:56.569Z,7.6
2019-03-11T13:33:58.122Z,7.6
2019-03-11T13:34:59.685Z,7.5
2019-03-11T13:36:01.096Z,7.5
2019-03-11T13:37:02.674Z,7.4
2019-03-11T13:38:04.238Z,7.4
2019-03-11T13:39:05.638Z,7.4
2019-03-11T13:40:07.025Z,7.4
2019-03-11T13:41:08.590Z,7.5
2019-03-11T13:42:10.149Z,7.5
2019-03-11T13:43:11.540Z,7.5
2019-03-11T13:44:13.098Z,7.5
2019-03-11T13:45:14.521Z,7.4
2019-03-11T13:46:16.090Z,7.4
2019-03-11T13:47:17.307Z,7.3
2019-03-11T13:48:18.688Z,7.2
2019-03-11T13:49:20.228Z,7.1
2019-03-11T13:50:21.739Z,7.1
2019-03-11T13:51:23.130Z,7.1
2019-03-11T13:52:24.512Z,7.1
2019-03-11T13:53:26.144Z,7.1
2019-03-11T13:54:27.396Z,7.1
2019-03-11T13:55:28.960Z,7.1
2019-03-11T13:56:30.351Z,7.1
2019-03-11T13:57:31.912Z,7.1
2019-03-11T13:58:34.763Z,7.1
2019-03-11T13:59:36.168Z,7.1
2019-03-11T14:00:37.741Z,7.1
2019-03-11T14:01:39.717Z,7.1
2019-03-11T14:02:41.124Z,7.1
2019-03-11T14:03:42.698Z,7.1
2019-03-11T14:04:44.273Z,7.1
2019-03-11T14:05:45.796Z,7.1
2019-03-11T14:06:47.370Z,7.1
2019-03-11T14:07:48.616Z,7.1
2019-03-11T14:08:50.004Z,7.2